Reno, NV

5:23 AM PDT on October 24, 2014 (GMT -0700)
Cashill / Caughlin Ranch | Change Station
CLOSE
Current Station
Personal Weather Station
Location: Reno, NV
Elevation: 5040 ft
Nearby Weather Stations
Active Advisory: Wind Advisory

Elev 5040 ft 39.49 °N, 119.85 °W | Updated 36 seconds ago

Clear
Clear
44.2 °F
Feels Like 44 °F
N
0.0
Wind Variable Wind from WNW
Gusts 4.0 mph

Today
High -- | Low -- °F
--% Chance of Precip.
Yesterday
High -- | Low -- °F
Precip. -- in
7:18 AM 6:07 PM
New Moon, 0% visible
Pressure 29.98 in
Visibility 10.0 miles
Clouds Clear
Windchill 44 °F
Dew Point 32 °F
Humidity 63%
Rainfall 0.00 in
Snow Depth 0 in
UV 0 out of 12
Pollen 2.80 out of 12
Air Quality Not available.
Flu Activity No Activity
METAR KRNO 241155Z 00000KT 10SM CLR 04/M01 A3007 RMK AO2 SLP152 T00441006 10111 20039 56008

More Conditions Fewer Conditions

Pressure 29.98 in
Visibility 10.0 miles
Clouds Clear
Windchill 44 °F
Dew Point 32 °F
Humidity 63%
Rainfall 0.00 in
Snow Depth 0 in
UV 0 out of 12
Pollen 2.80 out of 12
Air Quality Not available.
Flu Activity No Activity
METAR KRNO 241155Z 00000KT 10SM CLR 04/M01 A3007 RMK AO2 SLP152 T00441006 10111 20039 56008

More Conditions Fewer Conditions

10-Day Weather Forecast

Almanac

Astronomy

Oct. 24, 2014 Rise Set
Actual Time 7:18 AM PDT 6:07 PM PDT
Civil Twilight 6:51 AM PDT 6:34 PM PDT
Nautical Twilight 6:19 AM PDT 7:06 PM PDT
Astronomical Twilight 5:48 AM PDT 7:37 PM PDT
Moon 8:02 AM PDT 6:51 PM PDT
Length of Visible Light 11h 43m
Length of Day
10h 48m
Tomorrow will be 2m 23s shorter.
New Moon, 0% of the Moon is Illuminated
Today
New Moon
Oct 30
First Quarter
Nov 6
Full
Nov 14
Last Quarter
Nov 22
New

Today's Extremes

State Highs State Lows

Community

WunderPhotos

Upload Photos

1,764,533 photos uploaded!

Nearby

Snow Depth

Station Depth Elevation
Mt. Rose Ski Area 0 in 8850 ft
Marlette Lake 0 in 8000 ft
Big Creek Summit 1 in 8700 ft
Sheldon 0 in 5860 ft
Lewis Peak 0 in 7400 ft

Earthquake Activity

City Distance Mag. Time & Date
Gerlach-Empire, Nevada 53 miles 2.5 7:16 AM PDT
2014-10-23
Minimum magnitude displayed is 2.5.

Coastal Water Temperatures

Place Temperature
No Stations Reporting

Nearby Weather Stations